Time;durP1;ratioP1;P1;durP2;ratioP2;P2;SDS_P1;SDS_P2;PMS_P1;PMS_P2;Temp;Humidity;BMP_temperature;BMP_pressure;BME280_temperature;BME280_humidity;BME280_pressure;Samples;Min_cycle;Max_cycle;Signal;HPM_P1;HPM_P2
2024/01/22 00:00:00;;;;;;;4.72;2.17;;;;;;;;;;5050405;28;20586;-67
2024/01/22 00:02:26;;;;;;;8.25;2.60;;;;;;;;;;5052448;28;20033;-67
2024/01/22 00:04:52;;;;;;;9.57;2.90;;;;;;;;;;5060316;28;20082;-69
2024/01/22 00:07:18;;;;;;;5.63;2.33;;;;;;;;;;5032802;28;20024;-68
2024/01/22 00:09:44;;;;;;;9.52;2.95;;;;;;;;;;5059248;28;20385;-69
2024/01/22 00:12:10;;;;;;;5.03;2.78;;;;;;;;;;5051367;28;20025;-68
2024/01/22 00:14:42;;;;;;;7.80;3.35;;;;;;;;;;5051314;28;20413;-69
2024/01/22 00:17:08;;;;;;;11.95;4.00;;;;;;;;;;5053409;28;20123;-68
2024/01/22 00:19:34;;;;;;;6.97;2.92;;;;;;;;;;5028976;28;20025;-69
2024/01/22 00:22:00;;;;;;;14.13;3.63;;;;;;;;;;5055366;28;20134;-68
2024/01/22 00:24:26;;;;;;;14.82;3.03;;;;;;;;;;5056270;28;20584;-68
2024/01/22 00:26:52;;;;;;;16.83;3.47;;;;;;;;;;5058658;28;20070;-68
2024/01/22 00:29:18;;;;;;;15.13;2.78;;;;;;;;;;5056768;28;20029;-68
2024/01/22 00:31:45;;;;;;;10.38;2.90;;;;;;;;;;5056094;28;20024;-68
2024/01/22 00:34:11;;;;;;;9.48;2.63;;;;;;;;;;5061075;28;20044;-68
2024/01/22 00:36:37;;;;;;;9.52;2.80;;;;;;;;;;5052816;28;20071;-68
2024/01/22 00:39:03;;;;;;;7.57;2.42;;;;;;;;;;5052681;28;20093;-66
2024/01/22 00:41:29;;;;;;;9.07;3.30;;;;;;;;;;5053880;28;20028;-68
2024/01/22 00:43:55;;;;;;;9.55;2.88;;;;;;;;;;5056315;28;20050;-68
2024/01/22 00:46:21;;;;;;;15.27;4.38;;;;;;;;;;5044148;28;20073;-68
2024/01/22 00:48:48;;;;;;;12.52;3.78;;;;;;;;;;5054955;28;20511;-66
2024/01/22 00:51:14;;;;;;;10.32;4.00;;;;;;;;;;5043923;28;20033;-68
2024/01/22 00:53:40;;;;;;;11.52;2.95;;;;;;;;;;5051296;28;20032;-68
2024/01/22 00:56:06;;;;;;;16.05;3.53;;;;;;;;;;5031658;28;20032;-68
2024/01/22 00:58:32;;;;;;;15.48;3.95;;;;;;;;;;5058956;28;20056;-69
2024/01/22 01:00:58;;;;;;;18.30;3.63;;;;;;;;;;5059990;28;20017;-68
2024/01/22 01:03:25;;;;;;;8.73;3.75;;;;;;;;;;5054575;28;20036;-68
2024/01/22 01:05:51;;;;;;;17.48;3.40;;;;;;;;;;5039635;28;20114;-68
2024/01/22 01:08:17;;;;;;;18.90;3.65;;;;;;;;;;5053429;28;20025;-68
2024/01/22 01:10:43;;;;;;;8.95;2.97;;;;;;;;;;5053737;28;20028;-69
2024/01/22 01:13:09;;;;;;;7.00;3.42;;;;;;;;;;5050976;28;20052;-66
2024/01/22 01:15:35;;;;;;;9.15;4.32;;;;;;;;;;5042304;28;20028;-69
2024/01/22 01:18:01;;;;;;;14.70;3.20;;;;;;;;;;5052738;28;20028;-67
2024/01/22 01:20:28;;;;;;;7.05;2.38;;;;;;;;;;5057033;28;20039;-66
2024/01/22 01:22:54;;;;;;;12.63;3.50;;;;;;;;;;5059218;28;20494;-67
2024/01/22 01:25:20;;;;;;;6.82;2.58;;;;;;;;;;5050708;28;20024;-66
2024/01/22 01:27:46;;;;;;;6.90;2.88;;;;;;;;;;5048498;28;20025;-66
2024/01/22 01:30:12;;;;;;;10.55;3.90;;;;;;;;;;5050461;28;20032;-66
2024/01/22 01:32:38;;;;;;;7.63;2.55;;;;;;;;;;5050452;28;20484;-67
2024/01/22 01:35:05;;;;;;;10.73;2.92;;;;;;;;;;5053229;28;20021;-67
2024/01/22 01:37:31;;;;;;;10.10;3.92;;;;;;;;;;5049006;28;20682;-67
2024/01/22 01:39:57;;;;;;;4.80;2.90;;;;;;;;;;5057332;28;20040;-67
2024/01/22 01:42:23;;;;;;;5.45;2.20;;;;;;;;;;5052057;28;20253;-67
2024/01/22 01:44:50;;;;;;;4.68;2.05;;;;;;;;;;5053207;28;20025;-66
2024/01/22 01:47:17;;;;;;;8.02;2.53;;;;;;;;;;5057266;28;20028;-67
2024/01/22 01:49:45;;;;;;;16.85;3.20;;;;;;;;;;5034531;28;20032;-66
2024/01/22 01:52:11;;;;;;;5.90;2.15;;;;;;;;;;5054790;28;20503;-67
2024/01/22 01:54:38;;;;;;;5.60;2.40;;;;;;;;;;5056087;28;20024;-67
2024/01/22 01:57:07;;;;;;;6.38;1.92;;;;;;;;;;5053650;28;20176;-66
2024/01/22 01:59:38;;;;;;;4.57;1.77;;;;;;;;;;5049978;28;20051;-66
2024/01/22 02:02:04;;;;;;;4.88;1.77;;;;;;;;;;5047519;28;20048;-67
2024/01/22 02:04:31;;;;;;;4.90;1.90;;;;;;;;;;5038336;28;20025;-66
2024/01/22 02:06:57;;;;;;;2.63;1.88;;;;;;;;;;5046665;28;20053;-66
2024/01/22 02:09:43;;;;;;;6.63;2.63;;;;;;;;;;5054908;28;20087;-66
2024/01/22 02:12:10;;;;;;;9.07;2.40;;;;;;;;;;5039546;28;20354;-66
2024/01/22 02:14:36;;;;;;;4.47;1.85;;;;;;;;;;5053405;28;20033;-66
2024/01/22 02:17:02;;;;;;;8.15;2.55;;;;;;;;;;5042738;28;20021;-66
2024/01/22 02:19:28;;;;;;;9.82;2.83;;;;;;;;;;5053848;28;20408;-66
2024/01/22 02:21:54;;;;;;;11.48;3.45;;;;;;;;;;5055477;28;20020;-66
2024/01/22 02:24:20;;;;;;;5.55;2.45;;;;;;;;;;5060339;28;20028;-67
2024/01/22 02:26:47;;;;;;;12.98;2.78;;;;;;;;;;5053677;28;20119;-66
2024/01/22 02:29:13;;;;;;;24.17;3.17;;;;;;;;;;5050371;28;20022;-66
2024/01/22 02:31:39;;;;;;;7.38;2.08;;;;;;;;;;5053608;28;20146;-67
2024/01/22 02:34:05;;;;;;;14.05;2.78;;;;;;;;;;5043793;28;20032;-67
2024/01/22 02:36:31;;;;;;;8.77;3.10;;;;;;;;;;5054992;28;20028;-67
2024/01/22 02:38:58;;;;;;;14.00;2.88;;;;;;;;;;5045690;28;20556;-66
2024/01/22 02:41:24;;;;;;;8.07;2.83;;;;;;;;;;5057458;28;20104;-67
2024/01/22 02:43:50;;;;;;;7.00;2.92;;;;;;;;;;5052096;28;20060;-66
2024/01/22 02:46:17;;;;;;;22.33;4.07;;;;;;;;;;5053208;28;20029;-66
2024/01/22 02:48:43;;;;;;;11.82;3.13;;;;;;;;;;5061189;28;20036;-66
2024/01/22 02:51:09;;;;;;;11.23;3.03;;;;;;;;;;5048260;28;20059;-67
2024/01/22 02:53:36;;;;;;;8.52;3.42;;;;;;;;;;5040765;28;20064;-66
2024/01/22 02:56:03;;;;;;;9.52;3.40;;;;;;;;;;5043693;28;20029;-66
2024/01/22 02:58:30;;;;;;;7.15;2.53;;;;;;;;;;5055632;28;20053;-67
2024/01/22 03:00:56;;;;;;;14.60;3.33;;;;;;;;;;5040679;28;20028;-66
2024/01/22 03:03:22;;;;;;;10.18;3.15;;;;;;;;;;5048926;28;20043;-66
2024/01/22 03:05:48;;;;;;;8.13;2.80;;;;;;;;;;5056971;28;20070;-66
2024/01/22 03:08:14;;;;;;;12.30;3.13;;;;;;;;;;5058968;28;20499;-66
2024/01/22 03:10:40;;;;;;;12.77;4.45;;;;;;;;;;5059800;28;20029;-65
2024/01/22 03:13:06;;;;;;;13.70;2.92;;;;;;;;;;5061052;28;20036;-66
2024/01/22 03:15:32;;;;;;;13.35;2.85;;;;;;;;;;5033344;28;20029;-66
2024/01/22 03:17:59;;;;;;;18.38;3.78;;;;;;;;;;5056296;28;20048;-67
2024/01/22 03:20:25;;;;;;;8.68;2.97;;;;;;;;;;5054755;28;20036;-66
2024/01/22 03:22:51;;;;;;;9.55;3.05;;;;;;;;;;5053198;28;20036;-66
2024/01/22 03:25:17;;;;;;;10.57;2.88;;;;;;;;;;5055021;28;20023;-66
2024/01/22 03:27:43;;;;;;;9.85;2.90;;;;;;;;;;5054691;28;20106;-66
2024/01/22 03:30:10;;;;;;;10.35;2.97;;;;;;;;;;5056341;28;20028;-65
2024/01/22 03:32:36;;;;;;;9.68;3.38;;;;;;;;;;5052181;28;20602;-66
2024/01/22 03:35:02;;;;;;;15.60;3.22;;;;;;;;;;5057763;28;20056;-66
2024/01/22 03:37:28;;;;;;;7.50;2.78;;;;;;;;;;5055061;28;20985;-66
2024/01/22 03:39:54;;;;;;;8.27;3.20;;;;;;;;;;5044235;28;20791;-66
2024/01/22 03:42:20;;;;;;;4.72;2.58;;;;;;;;;;5039207;28;20388;-66
2024/01/22 03:44:46;;;;;;;8.55;3.33;;;;;;;;;;5053025;28;20029;-65
2024/01/22 03:47:13;;;;;;;8.68;2.30;;;;;;;;;;5055044;28;20025;-66
2024/01/22 03:49:39;;;;;;;10.20;2.75;;;;;;;;;;5050470;28;20480;-66
2024/01/22 03:52:05;;;;;;;6.13;2.78;;;;;;;;;;5053021;28;20487;-65
2024/01/22 03:54:31;;;;;;;9.18;2.80;;;;;;;;;;5048099;28;20111;-65
2024/01/22 03:56:58;;;;;;;5.68;2.47;;;;;;;;;;5031294;28;20036;-67
2024/01/22 03:59:24;;;;;;;14.30;2.75;;;;;;;;;;5071757;28;20101;-66
2024/01/22 04:01:50;;;;;;;7.82;2.60;;;;;;;;;;5074753;28;20024;-66
2024/01/22 04:04:16;;;;;;;5.88;2.58;;;;;;;;;;5079440;28;20487;-66
2024/01/22 04:06:42;;;;;;;10.18;2.78;;;;;;;;;;5080129;28;20075;-66
2024/01/22 04:09:10;;;;;;;10.15;3.40;;;;;;;;;;5078233;28;20555;-66
2024/01/22 04:11:36;;;;;;;9.23;3.30;;;;;;;;;;5076420;28;20095;-66
2024/01/22 04:14:03;;;;;;;8.50;2.83;;;;;;;;;;5075669;28;20032;-66
2024/01/22 04:16:29;;;;;;;8.40;2.60;;;;;;;;;;5073680;28;20130;-66
2024/01/22 04:18:55;;;;;;;5.82;2.33;;;;;;;;;;5082354;28;20078;-65
2024/01/22 04:21:23;;;;;;;8.57;3.00;;;;;;;;;;5076328;28;20035;-66
2024/01/22 04:23:49;;;;;;;4.45;2.05;;;;;;;;;;5070116;28;20476;-66
2024/01/22 04:26:15;;;;;;;9.77;3.55;;;;;;;;;;5074994;28;20393;-66
2024/01/22 04:28:41;;;;;;;11.35;2.88;;;;;;;;;;5073353;28;20062;-67
2024/01/22 04:31:07;;;;;;;8.43;2.97;;;;;;;;;;5078161;28;20110;-66
2024/01/22 04:33:33;;;;;;;12.25;4.20;;;;;;;;;;5074786;28;20652;-66
2024/01/22 04:36:00;;;;;;;11.30;2.45;;;;;;;;;;5073907;28;20159;-65
2024/01/22 04:38:26;;;;;;;6.47;2.38;;;;;;;;;;5071525;28;20383;-65
2024/01/22 04:40:52;;;;;;;18.55;4.35;;;;;;;;;;5075915;28;20105;-66
2024/01/22 04:43:21;;;;;;;6.60;2.30;;;;;;;;;;5069576;28;20031;-66
2024/01/22 04:45:48;;;;;;;8.45;2.80;;;;;;;;;;5068221;28;20028;-66
2024/01/22 04:48:14;;;;;;;6.30;2.83;;;;;;;;;;5077409;28;20020;-66
2024/01/22 04:50:40;;;;;;;5.97;2.63;;;;;;;;;;5075449;28;20437;-66
2024/01/22 04:53:06;;;;;;;11.13;2.20;;;;;;;;;;5074341;28;20112;-66
2024/01/22 04:55:33;;;;;;;8.98;2.88;;;;;;;;;;5071407;28;20020;-66
2024/01/22 04:57:59;;;;;;;4.03;1.77;;;;;;;;;;5066017;28;20051;-66
2024/01/22 05:00:25;;;;;;;10.23;3.45;;;;;;;;;;5054629;28;20422;-65
2024/01/22 05:02:51;;;;;;;6.00;2.67;;;;;;;;;;5053580;28;20029;-67
2024/01/22 05:05:17;;;;;;;5.05;2.28;;;;;;;;;;5062688;28;20038;-66
2024/01/22 05:07:43;;;;;;;4.40;2.53;;;;;;;;;;5034626;28;20021;-67
2024/01/22 05:10:09;;;;;;;17.38;3.25;;;;;;;;;;5056236;28;20025;-64
2024/01/22 05:12:39;;;;;;;5.07;1.98;;;;;;;;;;5036638;28;20040;-63
2024/01/22 05:15:05;;;;;;;4.85;2.22;;;;;;;;;;5034983;28;20036;-64
2024/01/22 05:17:32;;;;;;;5.05;1.80;;;;;;;;;;5035072;28;20404;-63
2024/01/22 05:19:58;;;;;;;8.05;2.83;;;;;;;;;;5049610;28;20105;-63
2024/01/22 05:22:25;;;;;;;6.28;2.90;;;;;;;;;;5054354;28;20508;-64
2024/01/22 05:24:51;;;;;;;12.25;3.42;;;;;;;;;;5053253;28;20495;-64
2024/01/22 05:27:17;;;;;;;9.32;1.98;;;;;;;;;;5033871;28;20076;-63
2024/01/22 05:29:43;;;;;;;6.57;3.10;;;;;;;;;;5058098;28;20127;-63
2024/01/22 05:32:10;;;;;;;14.68;3.22;;;;;;;;;;5051693;28;20471;-63
2024/01/22 05:34:36;;;;;;;4.07;2.05;;;;;;;;;;5052795;28;20427;-63
2024/01/22 05:37:02;;;;;;;11.45;3.03;;;;;;;;;;5048127;28;20110;-63
2024/01/22 05:39:28;;;;;;;11.35;4.43;;;;;;;;;;5051240;28;20037;-64
2024/01/22 05:41:54;;;;;;;9.35;3.03;;;;;;;;;;5047968;28;20039;-63
2024/01/22 05:44:21;;;;;;;12.90;3.75;;;;;;;;;;5038688;28;20024;-63
2024/01/22 05:46:47;;;;;;;6.72;2.78;;;;;;;;;;5051623;28;20483;-63
2024/01/22 05:49:13;;;;;;;8.80;2.22;;;;;;;;;;5030341;28;20037;-63
2024/01/22 05:51:39;;;;;;;11.98;3.20;;;;;;;;;;5034294;28;20071;-64
2024/01/22 05:54:05;;;;;;;14.68;3.42;;;;;;;;;;5051373;28;20395;-63
2024/01/22 05:56:32;;;;;;;8.60;2.42;;;;;;;;;;5056555;28;20059;-63
2024/01/22 05:58:58;;;;;;;5.45;2.72;;;;;;;;;;5050142;28;20514;-63
2024/01/22 06:01:29;;;;;;;6.30;2.30;;;;;;;;;;5050288;28;20048;-63
2024/01/22 06:03:56;;;;;;;9.50;2.90;;;;;;;;;;5040174;28;20021;-64
2024/01/22 06:06:22;;;;;;;2.28;2.08;;;;;;;;;;5054391;28;20051;-64
2024/01/22 06:08:48;;;;;;;3.80;2.00;;;;;;;;;;5050186;28;20395;-64
2024/01/22 06:11:17;;;;;;;4.43;2.30;;;;;;;;;;5046050;28;20025;-63
2024/01/22 06:13:43;;;;;;;6.88;2.08;;;;;;;;;;5051455;28;21006;-63
2024/01/22 06:16:10;;;;;;;9.25;2.47;;;;;;;;;;5052091;28;20095;-65
2024/01/22 06:18:37;;;;;;;15.40;2.90;;;;;;;;;;5047494;28;20420;-64
2024/01/22 06:21:04;;;;;;;5.05;2.28;;;;;;;;;;5046365;28;20056;-63
2024/01/22 06:23:31;;;;;;;5.35;2.88;;;;;;;;;;5051557;28;20650;-64
2024/01/22 06:25:57;;;;;;;4.15;2.97;;;;;;;;;;5053316;28;20456;-63
2024/01/22 06:28:27;;;;;;;8.13;2.65;;;;;;;;;;5055962;28;20025;-63
2024/01/22 06:30:54;;;;;;;8.43;2.72;;;;;;;;;;5056169;28;20476;-63
2024/01/22 06:33:21;;;;;;;17.90;2.92;;;;;;;;;;5051177;28;20028;-63
2024/01/22 06:35:47;;;;;;;7.68;2.30;;;;;;;;;;5040773;28;20051;-63
2024/01/22 06:38:17;;;;;;;6.97;2.75;;;;;;;;;;5055035;28;20539;-64
2024/01/22 06:40:44;;;;;;;5.85;3.03;;;;;;;;;;5055777;28;20043;-64
2024/01/22 06:43:10;;;;;;;8.95;2.55;;;;;;;;;;5033666;28;20480;-65
2024/01/22 06:45:36;;;;;;;5.38;3.03;;;;;;;;;;5050557;28;20125;-63
2024/01/22 06:48:03;;;;;;;11.27;2.70;;;;;;;;;;5051950;28;20396;-63
2024/01/22 06:50:29;;;;;;;11.57;3.22;;;;;;;;;;5046506;28;20113;-64
2024/01/22 06:52:59;;;;;;;8.88;2.10;;;;;;;;;;5019251;28;20029;-63
2024/01/22 06:55:25;;;;;;;6.65;1.83;;;;;;;;;;5031994;28;20022;-63
2024/01/22 06:57:52;;;;;;;6.32;3.25;;;;;;;;;;5050388;28;20032;-63
2024/01/22 07:00:19;;;;;;;13.77;2.47;;;;;;;;;;5055944;28;20036;-63
2024/01/22 07:02:45;;;;;;;8.70;2.22;;;;;;;;;;5059606;28;20032;-63
2024/01/22 07:05:12;;;;;;;8.55;3.17;;;;;;;;;;5054822;28;20397;-63
2024/01/22 07:07:38;;;;;;;7.63;2.80;;;;;;;;;;5056699;28;20028;-63
2024/01/22 07:10:05;;;;;;;5.07;2.10;;;;;;;;;;5053340;28;20115;-63
2024/01/22 07:12:32;;;;;;;3.53;1.58;;;;;;;;;;5052738;28;20052;-63
2024/01/22 07:14:58;;;;;;;12.02;2.63;;;;;;;;;;5042603;28;20395;-63
2024/01/22 07:17:24;;;;;;;12.95;2.92;;;;;;;;;;5052425;28;20053;-63
2024/01/22 07:19:50;;;;;;;5.90;2.17;;;;;;;;;;5058682;28;20519;-63
2024/01/22 07:22:17;;;;;;;8.63;2.67;;;;;;;;;;5053096;28;20036;-63
2024/01/22 07:24:43;;;;;;;3.20;2.50;;;;;;;;;;5052942;28;20025;-63
2024/01/22 07:27:09;;;;;;;12.35;3.45;;;;;;;;;;5058502;28;20032;-63
2024/01/22 07:29:36;;;;;;;9.43;2.70;;;;;;;;;;5035977;28;20028;-63
2024/01/22 07:32:02;;;;;;;6.13;2.53;;;;;;;;;;5052308;28;20582;-64
2024/01/22 07:34:29;;;;;;;8.20;2.65;;;;;;;;;;5057124;28;20063;-64
2024/01/22 07:36:55;;;;;;;5.28;2.17;;;;;;;;;;5057879;28;20489;-63
2024/01/22 07:39:21;;;;;;;9.38;2.83;;;;;;;;;;5052610;28;20032;-63
2024/01/22 07:41:47;;;;;;;3.58;1.95;;;;;;;;;;5047280;28;20043;-64
2024/01/22 07:44:14;;;;;;;6.30;2.42;;;;;;;;;;5049891;28;20362;-65
2024/01/22 07:46:40;;;;;;;10.02;2.72;;;;;;;;;;5040245;28;20063;-64
2024/01/22 07:49:07;;;;;;;3.97;2.83;;;;;;;;;;5038914;28;20032;-64
2024/01/22 07:51:34;;;;;;;10.85;3.20;;;;;;;;;;5054336;28;20025;-64
2024/01/22 07:54:01;;;;;;;10.18;2.63;;;;;;;;;;5051682;28;20033;-64
2024/01/22 07:56:28;;;;;;;5.93;2.67;;;;;;;;;;5052501;28;20083;-63
2024/01/22 07:58:55;;;;;;;7.35;2.22;;;;;;;;;;5047839;28;20032;-63
2024/01/22 08:01:21;;;;;;;2.40;1.60;;;;;;;;;;5031240;28;20052;-64
2024/01/22 08:03:47;;;;;;;3.78;1.95;;;;;;;;;;5050734;28;20035;-64
2024/01/22 08:06:13;;;;;;;7.68;2.38;;;;;;;;;;5063874;28;20105;-63
2024/01/22 08:08:43;;;;;;;13.88;2.58;;;;;;;;;;5058330;28;20032;-64
2024/01/22 08:11:10;;;;;;;3.88;2.03;;;;;;;;;;5038653;28;20032;-63
2024/01/22 08:13:37;;;;;;;6.88;2.05;;;;;;;;;;5045567;28;20492;-63
2024/01/22 08:16:03;;;;;;;10.20;2.92;;;;;;;;;;5059427;28;20052;-64
2024/01/22 08:18:30;;;;;;;6.47;2.10;;;;;;;;;;5030946;28;20056;-64
2024/01/22 08:20:59;;;;;;;5.68;2.17;;;;;;;;;;5048843;28;20025;-63
2024/01/22 08:23:25;;;;;;;4.40;2.33;;;;;;;;;;5041915;28;20830;-64
2024/01/22 08:25:51;;;;;;;8.23;2.35;;;;;;;;;;5058072;28;20049;-63
2024/01/22 08:28:18;;;;;;;6.97;2.13;;;;;;;;;;5049058;28;20021;-64
2024/01/22 08:30:44;;;;;;;9.15;2.78;;;;;;;;;;5051171;28;20096;-63
2024/01/22 08:33:10;;;;;;;11.38;2.72;;;;;;;;;;5049589;28;20021;-63
2024/01/22 08:35:36;;;;;;;6.53;2.22;;;;;;;;;;5049617;28;20029;-64
2024/01/22 08:38:03;;;;;;;6.63;2.33;;;;;;;;;;5049683;28;20030;-63
2024/01/22 08:40:30;;;;;;;6.63;1.83;;;;;;;;;;5028830;28;20478;-64
2024/01/22 08:42:58;;;;;;;10.27;3.03;;;;;;;;;;5054810;28;20025;-64
2024/01/22 08:45:24;;;;;;;3.63;1.98;;;;;;;;;;5039902;28;20033;-63
2024/01/22 08:47:50;;;;;;;14.13;3.05;;;;;;;;;;5049191;28;20033;-63
2024/01/22 08:50:23;;;;;;;3.70;1.90;;;;;;;;;;5039603;28;20024;-64
2024/01/22 08:52:50;;;;;;;7.85;2.45;;;;;;;;;;5051608;28;20056;-64
2024/01/22 08:55:18;;;;;;;3.47;2.00;;;;;;;;;;5053974;28;20434;-64
2024/01/22 08:57:44;;;;;;;5.28;1.77;;;;;;;;;;5063921;28;20802;-63
2024/01/22 09:00:11;;;;;;;3.17;1.77;;;;;;;;;;5049918;28;20025;-64
2024/01/22 09:02:40;;;;;;;6.38;2.33;;;;;;;;;;5051340;28;20036;-63
2024/01/22 09:05:10;;;;;;;7.60;2.47;;;;;;;;;;5041149;28;20700;-63
2024/01/22 09:07:37;;;;;;;11.05;2.28;;;;;;;;;;5048162;28;20033;-63
2024/01/22 09:10:11;;;;;;;12.70;2.13;;;;;;;;;;5051837;28;20197;-63
2024/01/22 09:12:37;;;;;;;3.00;2.25;;;;;;;;;;5048239;28;20059;-63
2024/01/22 09:15:04;;;;;;;11.50;2.40;;;;;;;;;;5049169;28;20393;-63
2024/01/22 09:17:31;;;;;;;4.00;2.25;;;;;;;;;;5050122;28;20024;-63
2024/01/22 09:19:58;;;;;;;7.22;2.70;;;;;;;;;;5052572;28;20028;-63
2024/01/22 09:22:24;;;;;;;7.00;3.63;;;;;;;;;;5056652;28;20535;-64
2024/01/22 09:24:50;;;;;;;5.57;2.55;;;;;;;;;;5048680;28;20028;-63
2024/01/22 09:27:17;;;;;;;5.88;2.25;;;;;;;;;;5053749;28;20091;-63
2024/01/22 09:29:43;;;;;;;7.57;2.35;;;;;;;;;;5049385;28;20551;-63
2024/01/22 09:32:09;;;;;;;4.53;2.30;;;;;;;;;;5035882;28;20029;-63
2024/01/22 09:34:38;;;;;;;4.68;2.38;;;;;;;;;;5051265;28;20071;-63
2024/01/22 09:37:05;;;;;;;2.38;2.10;;;;;;;;;;5053930;28;20083;-63
2024/01/22 09:39:32;;;;;;;10.88;2.70;;;;;;;;;;5052436;28;20435;-63
2024/01/22 09:41:58;;;;;;;5.25;2.20;;;;;;;;;;5049368;28;20047;-64
2024/01/22 09:44:25;;;;;;;6.75;2.30;;;;;;;;;;5051021;28;20412;-63
2024/01/22 09:46:52;;;;;;;8.70;2.38;;;;;;;;;;5028940;28;20029;-63
2024/01/22 09:49:18;;;;;;;12.77;3.03;;;;;;;;;;5053934;28;20028;-63
2024/01/22 09:51:44;;;;;;;8.30;2.38;;;;;;;;;;5048960;28;20051;-64
2024/01/22 09:54:17;;;;;;;12.63;2.47;;;;;;;;;;5048928;28;20445;-63
2024/01/22 09:56:45;;;;;;;13.65;2.85;;;;;;;;;;5036441;28;20041;-64
2024/01/22 09:59:22;;;;;;;8.27;2.60;;;;;;;;;;5058805;28;20496;-62
2024/01/22 10:01:49;;;;;;;6.45;3.03;;;;;;;;;;5038220;28;20023;-62
2024/01/22 10:04:16;;;;;;;11.40;2.58;;;;;;;;;;5081502;28;20403;-62
2024/01/22 10:06:42;;;;;;;8.93;2.58;;;;;;;;;;5041345;28;20028;-64
2024/01/22 10:09:08;;;;;;;8.52;2.13;;;;;;;;;;5059153;28;20034;-63
2024/01/22 10:11:35;;;;;;;7.28;2.58;;;;;;;;;;5076818;28;20066;-63
2024/01/22 10:14:01;;;;;;;15.25;3.97;;;;;;;;;;5064366;28;20047;-63
2024/01/22 10:16:30;;;;;;;12.25;2.50;;;;;;;;;;5061356;28;20036;-63
2024/01/22 10:18:57;;;;;;;7.50;2.30;;;;;;;;;;5078224;28;20039;-61
2024/01/22 10:21:24;;;;;;;2.45;1.95;;;;;;;;;;5076091;28;20472;-61
2024/01/22 10:24:00;;;;;;;10.13;2.97;;;;;;;;;;5066713;28;20081;-62
2024/01/22 10:26:27;;;;;;;4.63;2.15;;;;;;;;;;5057928;28;20024;-62
2024/01/22 10:28:53;;;;;;;5.10;2.78;;;;;;;;;;5075567;28;20483;-62
2024/01/22 10:31:20;;;;;;;3.38;2.30;;;;;;;;;;5075205;28;20046;-62
2024/01/22 10:33:48;;;;;;;6.68;2.25;;;;;;;;;;5073347;28;20503;-62
2024/01/22 10:36:16;;;;;;;6.00;2.75;;;;;;;;;;5079706;28;20498;-63
2024/01/22 10:38:43;;;;;;;4.00;1.92;;;;;;;;;;5071350;28;20119;-63
2024/01/22 10:41:25;;;;;;;3.60;1.90;;;;;;;;;;5088093;28;20032;-63
2024/01/22 10:43:51;;;;;;;9.50;2.63;;;;;;;;;;5083485;28;20028;-62
2024/01/22 10:46:18;;;;;;;4.25;2.35;;;;;;;;;;5088682;28;20028;-66
2024/01/22 10:48:45;;;;;;;5.00;2.13;;;;;;;;;;5060141;28;20028;-65
2024/01/22 10:51:11;;;;;;;4.28;2.10;;;;;;;;;;5070197;28;20028;-65
2024/01/22 10:53:38;;;;;;;5.18;2.13;;;;;;;;;;5081455;28;20879;-65
2024/01/22 10:56:23;;;;;;;4.20;1.80;;;;;;;;;;5083365;28;20028;-65
2024/01/22 10:58:50;;;;;;;10.07;2.08;;;;;;;;;;5061206;28;20037;-65
2024/01/22 11:01:17;;;;;;;5.72;2.83;;;;;;;;;;5029323;28;20044;-65
2024/01/22 11:03:48;;;;;;;5.43;2.15;;;;;;;;;;5039394;28;20443;-65
2024/01/22 11:06:18;;;;;;;3.92;1.73;;;;;;;;;;5056322;28;20113;-65
2024/01/22 11:08:48;;;;;;;3.97;2.00;;;;;;;;;;5058520;28;20024;-65
2024/01/22 11:11:17;;;;;;;7.63;2.88;;;;;;;;;;5058724;28;20068;-65
2024/01/22 11:13:48;;;;;;;2.35;1.90;;;;;;;;;;5054126;28;20037;-65
2024/01/22 11:16:14;;;;;;;6.90;2.42;;;;;;;;;;5058779;28;20037;-63
2024/01/22 11:18:53;;;;;;;2.53;1.83;;;;;;;;;;5055648;28;20032;-63
2024/01/22 11:21:19;;;;;;;9.43;2.60;;;;;;;;;;5037836;28;20047;-63
2024/01/22 11:24:19;;;;;;;10.60;2.85;;;;;;;;;;5063012;28;20021;-62
2024/01/22 11:27:01;;;;;;;7.38;2.75;;;;;;;;;;4987300;28;20044;-63
2024/01/22 11:29:28;;;;;;;8.77;2.40;;;;;;;;;;5048039;28;20175;-63
2024/01/22 11:31:56;;;;;;;7.50;3.13;;;;;;;;;;5047691;28;20377;-63
2024/01/22 11:34:40;;;;;;;8.13;2.63;;;;;;;;;;5048456;28;20035;-62
2024/01/22 11:37:07;;;;;;;10.02;3.65;;;;;;;;;;5056845;28;20081;-63
2024/01/22 11:39:39;;;;;;;7.60;2.78;;;;;;;;;;5054295;28;20052;-63
2024/01/22 11:42:20;;;;;;;3.67;2.40;;;;;;;;;;5043194;28;20044;-62
2024/01/22 11:44:48;;;;;;;11.23;2.45;;;;;;;;;;5047464;28;20041;-62
2024/01/22 11:47:18;;;;;;;11.95;2.75;;;;;;;;;;5048618;28;20025;-63
2024/01/22 11:49:44;;;;;;;14.40;3.60;;;;;;;;;;5049115;28;20029;-62
2024/01/22 11:52:16;;;;;;;9.40;2.60;;;;;;;;;;5052328;28;20040;-63
2024/01/22 11:55:01;;;;;;;11.40;2.63;;;;;;;;;;5047801;28;20926;-63
2024/01/22 11:57:29;;;;;;;10.35;2.90;;;;;;;;;;5053272;28;20032;-62
2024/01/22 11:59:59;;;;;;;4.50;2.10;;;;;;;;;;5084733;28;20043;-62
2024/01/22 12:02:25;;;;;;;4.63;2.53;;;;;;;;;;5068824;28;20028;-63
2024/01/22 12:05:09;;;;;;;15.18;3.47;;;;;;;;;;5079182;28;20383;-62
2024/01/22 12:07:36;;;;;;;7.45;2.40;;;;;;;;;;5082135;28;20012;-62
2024/01/22 12:10:06;;;;;;;12.70;2.83;;;;;;;;;;5080694;28;20119;-62
2024/01/22 12:12:33;;;;;;;8.48;2.55;;;;;;;;;;5057017;28;20043;-64
2024/01/22 12:15:01;;;;;;;6.70;2.40;;;;;;;;;;5078244;28;20036;-62
2024/01/22 12:17:27;;;;;;;8.43;2.83;;;;;;;;;;5082106;28;20028;-63
2024/01/22 12:19:57;;;;;;;10.80;3.20;;;;;;;;;;5057431;28;20633;-62
2024/01/22 12:22:23;;;;;;;6.45;2.63;;;;;;;;;;5060727;28;20036;-62
2024/01/22 12:25:22;;;;;;;5.43;2.67;;;;;;;;;;5051533;28;20028;-62
2024/01/22 12:27:50;;;;;;;2.90;1.77;;;;;;;;;;4998116;28;20036;-62
2024/01/22 12:30:17;;;;;;;11.00;2.55;;;;;;;;;;5071375;28;20423;-62
2024/01/22 12:32:53;;;;;;;4.10;2.00;;;;;;;;;;5049636;28;20411;-62
2024/01/22 12:35:23;;;;;;;7.22;2.42;;;;;;;;;;5062628;28;20101;-62
2024/01/22 12:37:49;;;;;;;8.65;2.50;;;;;;;;;;5075681;28;20028;-62
2024/01/22 12:40:16;;;;;;;8.20;2.85;;;;;;;;;;5056893;28;20028;-64
2024/01/22 12:42:47;;;;;;;4.47;1.88;;;;;;;;;;5074132;28;20422;-62
2024/01/22 12:45:14;;;;;;;6.20;2.28;;;;;;;;;;5052345;28;20020;-62
2024/01/22 12:47:40;;;;;;;3.28;2.15;;;;;;;;;;5072013;28;20042;-62
2024/01/22 12:50:07;;;;;;;8.65;3.08;;;;;;;;;;5078535;28;20043;-62
2024/01/22 12:52:34;;;;;;;9.50;3.40;;;;;;;;;;5070919;28;20495;-63
2024/01/22 12:55:03;;;;;;;6.47;3.08;;;;;;;;;;5066611;28;20039;-63
2024/01/22 12:57:29;;;;;;;3.83;2.88;;;;;;;;;;5061195;28;20446;-62
2024/01/22 12:59:55;;;;;;;4.88;2.85;;;;;;;;;;5074518;28;20032;-61
2024/01/22 13:02:21;;;;;;;5.07;2.65;;;;;;;;;;5061120;28;20028;-65
2024/01/22 13:04:49;;;;;;;3.13;1.83;;;;;;;;;;5058494;28;20035;-63
2024/01/22 13:07:16;;;;;;;5.78;3.72;;;;;;;;;;5075934;28;20032;-63
2024/01/22 13:09:45;;;;;;;6.45;3.45;;;;;;;;;;5057407;28;20081;-67
2024/01/22 13:12:11;;;;;;;10.55;2.75;;;;;;;;;;5061188;28;20024;-63
2024/01/22 13:14:37;;;;;;;6.05;3.03;;;;;;;;;;5076979;28;20089;-65
2024/01/22 13:17:04;;;;;;;7.03;2.58;;;;;;;;;;5075485;28;20643;-66
2024/01/22 13:19:36;;;;;;;7.65;2.20;;;;;;;;;;5079105;28;20298;-64
2024/01/22 13:22:02;;;;;;;9.48;2.63;;;;;;;;;;5078202;28;20062;-63
2024/01/22 13:24:31;;;;;;;5.60;2.20;;;;;;;;;;5044871;28;20024;-62
2024/01/22 13:26:58;;;;;;;4.68;2.03;;;;;;;;;;5071556;28;20656;-63
2024/01/22 13:29:24;;;;;;;8.55;2.55;;;;;;;;;;5078309;28;20038;-62
2024/01/22 13:31:51;;;;;;;9.80;3.05;;;;;;;;;;5079345;28;20110;-62
2024/01/22 13:34:17;;;;;;;10.32;2.45;;;;;;;;;;5076984;28;20581;-62
2024/01/22 13:36:43;;;;;;;12.02;3.45;;;;;;;;;;5082184;28;20143;-62
2024/01/22 13:39:10;;;;;;;8.75;2.15;;;;;;;;;;5075698;28;20028;-62
2024/01/22 13:41:36;;;;;;;6.05;2.15;;;;;;;;;;5080028;28;20207;-64
2024/01/22 13:44:05;;;;;;;5.65;2.78;;;;;;;;;;5078472;28;20032;-63
2024/01/22 13:46:32;;;;;;;4.35;2.83;;;;;;;;;;5074014;28;20027;-63
2024/01/22 13:48:59;;;;;;;7.70;2.10;;;;;;;;;;5052268;28;22035;-62
2024/01/22 13:51:25;;;;;;;5.78;3.05;;;;;;;;;;5071700;28;20135;-62
2024/01/22 13:53:51;;;;;;;8.20;2.53;;;;;;;;;;5073888;28;20028;-62
2024/01/22 13:56:18;;;;;;;5.38;2.47;;;;;;;;;;5081908;28;20059;-62
2024/01/22 13:58:44;;;;;;;9.40;2.83;;;;;;;;;;5055846;28;20048;-62
2024/01/22 14:01:10;;;;;;;5.57;3.67;;;;;;;;;;5055465;28;20108;-62
2024/01/22 14:03:38;;;;;;;7.63;4.28;;;;;;;;;;5056657;28;20063;-63
2024/01/22 14:06:06;;;;;;;6.50;3.45;;;;;;;;;;5057557;28;20079;-62
2024/01/22 14:08:33;;;;;;;6.82;2.75;;;;;;;;;;5048376;28;20744;-62
2024/01/22 14:11:04;;;;;;;12.65;2.83;;;;;;;;;;5049926;28;20025;-62
2024/01/22 14:13:30;;;;;;;11.52;3.85;;;;;;;;;;5037117;28;20489;-63
2024/01/22 14:15:56;;;;;;;4.97;3.40;;;;;;;;;;5041190;28;20033;-62
2024/01/22 14:18:26;;;;;;;8.23;3.00;;;;;;;;;;5049402;28;20519;-62
2024/01/22 14:20:52;;;;;;;7.80;2.63;;;;;;;;;;5049977;28;20032;-62
2024/01/22 14:23:18;;;;;;;7.32;2.10;;;;;;;;;;5054914;28;20511;-62
2024/01/22 14:25:45;;;;;;;5.20;2.35;;;;;;;;;;5052849;28;20036;-63
2024/01/22 14:28:11;;;;;;;2.95;1.95;;;;;;;;;;5053910;28;20028;-62
2024/01/22 14:30:37;;;;;;;2.42;2.17;;;;;;;;;;5053862;28;20032;-61
2024/01/22 14:33:04;;;;;;;3.50;2.00;;;;;;;;;;5049926;28;20044;-62
2024/01/22 14:35:30;;;;;;;3.85;1.73;;;;;;;;;;5054419;28;20279;-66
2024/01/22 14:37:56;;;;;;;5.15;2.00;;;;;;;;;;5045020;28;20100;-62